Bourbonnais, IL (60914)

16:46 CDT le 25 avril 2015 (GMT -0500)
Quail hallow | | Change Station
CLOSE
Current Station
Stations météorologiques personnelles
Location: Bradley, IL
Altitude: 669 ft
Stations météo à proximité

Alt. 669 ft 41.16 °N, 87.84 °W | Updated 3 minutes ago

Couvert
Couvert
47.5 ° F
Paraît 43 ° F
N
9.4
Vent Variable Vent de OSO

Aujourd'hui
Haut(e) -- | Bas -- ° F
--% Risque de précip.
Hier
Haut(e) -- | Bas -- ° F
Precip. -- pouce
5:57 AM 7:42 PM
Lune montante, 49% visible
Pression 29.69 pouce
Visibilité 10.0 Miles terrestres
Nuages Nuages épars 1800 ft
Couvert 2400 ft
Refroidissement éolien 43 ° F
Point de rosée 41 ° F
Humidité 79%
Précipitations 1.15 pouce
Profondeur de la couche neigeuse Non disponible.
UV 1 sur 12
Pollen 1.40 sur 12
Qualité de l'air Non disponible.
Flu Activity Regional
METAR KIKK 252135Z AUTO 05015G20KT 10SM SCT018 OVC024 08/06 A2969 RMK AO2 T00830055

More Conditions Fewer Conditions

Pression 29.69 pouce
Visibilité 10.0 Miles terrestres
Nuages Nuages épars 1800 ft
Couvert 2400 ft
Refroidissement éolien 43 ° F
Point de rosée 41 ° F
Humidité 79%
Précipitations 1.15 pouce
Profondeur de la couche neigeuse Non disponible.
UV 1 sur 12
Pollen 1.40 sur 12
Qualité de l'air Non disponible.
Flu Activity Regional
METAR KIKK 252135Z AUTO 05015G20KT 10SM SCT018 OVC024 08/06 A2969 RMK AO2 T00830055

More Conditions Fewer Conditions

10-Day Weather Forecast

Almanac

Astronomie

Apr. 25, 2015 Lever Coucher
Temps réel
Crépuscule civil
Crépuscule nautique
Crépuscule astronomique
Lune
Durée de lumière visible
Longueur du jour
Tomorrow will be .
, % of the Moon is Illuminated

Extrêmes aujourd'hui

State Highs State Lows

Community

WunderPhotos

Upload Photos

1,816,820 Photos téléchargées !

WunderBlogs® & News

Nearby

Qualité de l'air

  Qualité de l'air Indice de la qualité de l'air Polluant
Not available.

Épaisseur de neige

Station Depth Altitude

Activité sismique

Ville Distance Mag. Time & Date
Minimum magnitude displayed is 2.5.

Températures des eaux côtières

Lieu Température

Stations

Stations météo à proximité

Emplacement de la station Température Refroidissement éolien Point de rosée Humidité Vent Precip. Alt. Mise à jour Type